Monte Creek, Canada
Current Conditions -  °F | °C
As of 5:00 AM on Wednesday 22 Oct 2014 (Local Time) from CYKA Reporting Station
Overcast Overcast  
Wind Chill: 59°   Ceiling: 9000
Heat Index: 59°   Visibility: 40mi
Dew Point: 37°   Wind: 13mph
Humidity: 45%   Direction: 100°E
Pressure: 29.62"   Gusts: 23mph
Location:  50.65°N, 119.96°W
Report Text: CYKA 221200Z 10011G20KT 40SM OVC090 15/03 A2962 RMK AC8 SLP031 DENSITY ALT 1700FT
Loading
Personal Weather Stations






























Interactive Weather Map
Tropical Storm Tracking
New forecast layout! Learn more

10-Day Weather Forecast

Advertisements
Track Severe Weather on mobile